createdAt,value
2019-01-23T00:04:13.373Z,94372.2
2019-01-23T00:09:10.955Z,94357.9
2019-01-23T00:14:08.390Z,94367.2
2019-01-23T00:19:05.849Z,94360.7
2019-01-23T00:24:03.234Z,94342.1
2019-01-23T00:29:00.502Z,94355.2
2019-01-23T00:33:58.277Z,94372.4
2019-01-23T00:38:55.760Z,94375.2
2019-01-23T00:43:53.271Z,94370.5
2019-01-23T00:48:50.655Z,94337.6
2019-01-23T00:53:48.126Z,94334.5
2019-01-23T00:58:49.124Z,94329.5
2019-01-23T01:03:42.494Z,94349.3
2019-01-23T01:08:40.096Z,94355.1
2019-01-23T01:13:37.079Z,94343.5
2019-01-23T01:18:34.364Z,94358.9
2019-01-23T01:23:31.841Z,94328.2
2019-01-23T01:28:29.225Z,94334.3
2019-01-23T01:33:26.845Z,94204.4
2019-01-23T01:38:24.488Z,94234.8
2019-01-23T01:43:22.009Z,94313.2
2019-01-23T01:48:19.428Z,94312.6
2019-01-23T01:53:16.952Z,94322.7
2019-01-23T01:58:14.263Z,94316.1
2019-01-23T02:03:15.413Z,94298.5
2019-01-23T02:08:09.723Z,94297.6
2019-01-23T02:13:07.056Z,94167.1
2019-01-23T02:18:04.652Z,94282
2019-01-23T02:23:02.253Z,94270.7
2019-01-23T02:27:59.380Z,94284.6
2019-01-23T02:32:56.945Z,94280.2
2019-01-23T02:37:54.454Z,94282.7
2019-01-23T02:42:51.963Z,94281.5
2019-01-23T02:47:49.424Z,94290.5
2019-01-23T02:52:47.064Z,94285.3
2019-01-23T02:57:44.526Z,94288.2
2019-01-23T03:02:41.870Z,94283.3
2019-01-23T03:07:39.351Z,94293.3
2019-01-23T03:12:37.037Z,94279.3
2019-01-23T03:17:34.445Z,94290.2
2019-01-23T03:22:31.573Z,94278.8
2019-01-23T03:27:29.100Z,94274
2019-01-23T03:32:26.538Z,94262.8
2019-01-23T03:37:24.106Z,94276.3
2019-01-23T03:42:21.542Z,94277.6
2019-01-23T03:47:19.147Z,94324
2019-01-23T03:52:16.658Z,94076.2
2019-01-23T03:57:13.533Z,94255.7
2019-01-23T04:02:11.428Z,94128.7
2019-01-23T04:07:08.174Z,94252.2
2019-01-23T04:12:05.717Z,94263.9
2019-01-23T04:17:03.022Z,94255
2019-01-23T04:22:00.653Z,94271.9
2019-01-23T04:26:58.192Z,94262.5
2019-01-23T04:31:55.802Z,94263
2019-01-23T04:36:53.155Z,94279.6
2019-01-23T04:41:50.577Z,94283.6
2019-01-23T04:46:47.883Z,94287.4
2019-01-23T04:51:45.470Z,94284.4
2019-01-23T04:56:42.585Z,94246.8
2019-01-23T05:01:39.849Z,94289.5
2019-01-23T05:06:37.090Z,94285.9
2019-01-23T05:11:34.608Z,94287.1
2019-01-23T05:16:32.137Z,94285.4
2019-01-23T05:21:29.579Z,94295.5
2019-01-23T05:26:26.985Z,94299.4
2019-01-23T05:31:24.319Z,94303.6
2019-01-23T05:36:21.669Z,94302.4
2019-01-23T05:41:19.135Z,94315.1
2019-01-23T05:46:16.259Z,94296.2
2019-01-23T05:51:13.388Z,94280.6
2019-01-23T05:56:11.028Z,94288.9
2019-01-23T06:01:08.043Z,94312.8
2019-01-23T06:06:05.523Z,94303.2
2019-01-23T06:11:03.122Z,94304.2
2019-01-23T06:16:00.640Z,94296.6
2019-01-23T06:20:58.820Z,94177.7
2019-01-23T06:25:56.191Z,94287.4
2019-01-23T06:30:53.982Z,94290.9
2019-01-23T06:35:51.857Z,94127.3
2019-01-23T06:40:49.261Z,94283.3
2019-01-23T06:45:46.666Z,94285.3
2019-01-23T06:50:43.842Z,94281.4
2019-01-23T06:55:41.220Z,94283.1
2019-01-23T07:00:38.605Z,94275.5
2019-01-23T07:05:36.131Z,94278
2019-01-23T07:10:33.837Z,94265
2019-01-23T07:15:31.177Z,94252.9
2019-01-23T07:20:28.112Z,94261.1
2019-01-23T07:25:24.888Z,94261.8
2019-01-23T07:30:24.228Z,94190.9
2019-01-23T07:35:18.097Z,94281.3
2019-01-23T07:40:15.277Z,94230.4
2019-01-23T07:45:12.551Z,94290.5
2019-01-23T07:50:09.821Z,94203.8
2019-01-23T07:55:07.370Z,94273.9
2019-01-23T08:00:04.285Z,94275.4
2019-01-23T08:05:01.678Z,94125.9
2019-01-23T08:09:58.904Z,94276.7
2019-01-23T08:14:55.936Z,94271.1
2019-01-23T08:19:53.182Z,94278.4
2019-01-23T08:24:50.607Z,94276.1
2019-01-23T08:29:48.187Z,94273.3
2019-01-23T08:34:45.298Z,94283.2
2019-01-23T08:39:42.754Z,94274.7
2019-01-23T08:44:39.996Z,94288.5
2019-01-23T08:49:37.623Z,94287.6
2019-01-23T08:54:34.943Z,94289.2
2019-01-23T08:59:32.503Z,94176.5
2019-01-23T09:04:30.018Z,94291.3
2019-01-23T09:09:27.635Z,94279.1
2019-01-23T09:14:25.225Z,94291.1
2019-01-23T09:19:22.823Z,94276.3
2019-01-23T09:24:20.317Z,94274.9
2019-01-23T09:29:17.660Z,94257.3
2019-01-23T09:34:15.136Z,94252.2
2019-01-23T09:39:12.519Z,94224.8
2019-01-23T09:44:10.607Z,94115.3
2019-01-23T09:49:07.371Z,94201
2019-01-23T09:54:04.903Z,94054
2019-01-23T09:59:02.553Z,94167.5
2019-01-23T10:03:59.824Z,94192.6
2019-01-23T10:08:57.272Z,94160.3
2019-01-23T10:13:54.725Z,94192.4
2019-01-23T10:18:56.071Z,94177.3
2019-01-23T10:23:49.972Z,94157.5
2019-01-23T10:28:47.100Z,94130.5
2019-01-23T10:33:45.100Z,93985
2019-01-23T10:38:42.588Z,94115.5
2019-01-23T10:43:39.844Z,94104.7
2019-01-23T10:48:38.270Z,93980.5
2019-01-23T10:53:36.101Z,94111.4
2019-01-23T10:58:33.558Z,94079.8
2019-01-23T11:03:31.018Z,94095.4
2019-01-23T11:08:28.525Z,94089.9
2019-01-23T11:13:26.053Z,94075.6
2019-01-23T11:18:23.616Z,94068.5
2019-01-23T11:23:21.266Z,94219.8
2019-01-23T11:28:18.863Z,94047.2
2019-01-23T11:33:16.642Z,93931.2
2019-01-23T11:38:14.590Z,94042.6
2019-01-23T11:43:12.152Z,93947.9
2019-01-23T11:48:09.751Z,94171.2
2019-01-23T11:53:07.314Z,93931.8
2019-01-23T11:58:05.318Z,94024.6
2019-01-23T12:03:02.892Z,93908.4
2019-01-23T12:08:00.444Z,93906
2019-01-23T12:12:58.111Z,93921.7
2019-01-23T12:17:55.779Z,94023.7
2019-01-23T12:22:53.192Z,93893.7
2019-01-23T12:27:50.886Z,93893.6
2019-01-23T12:32:48.229Z,93883.3
2019-01-23T12:37:45.677Z,93892.2
2019-01-23T12:42:43.276Z,93888.9
2019-01-23T12:47:40.894Z,93889.1
2019-01-23T12:52:38.801Z,93990.9
2019-01-23T12:57:36.755Z,93828.8
2019-01-23T13:02:34.554Z,93984.2
2019-01-23T13:07:33.439Z,93859.3
2019-01-23T13:12:29.471Z,93852.5
2019-01-23T13:17:27.204Z,93841.1
2019-01-23T13:22:24.770Z,93862.2
2019-01-23T13:27:22.329Z,93847.7
2019-01-23T13:32:19.750Z,93835
2019-01-23T13:37:17.847Z,93946.1
2019-01-23T13:42:15.231Z,93800.7
2019-01-23T13:47:12.710Z,93830.7
2019-01-23T13:52:09.506Z,93823.9
2019-01-23T13:57:06.859Z,93813.2
2019-01-23T14:02:04.267Z,93828.9
2019-01-23T14:07:01.404Z,93826.8
2019-01-23T14:11:58.780Z,93811
2019-01-23T14:16:56.171Z,93803.4
2019-01-23T14:21:53.486Z,93807.1
2019-01-23T14:26:50.869Z,93929
2019-01-23T14:31:48.555Z,93915.8
2019-01-23T14:36:46.217Z,93805.2
2019-01-23T14:41:43.470Z,93801
2019-01-23T14:46:41.702Z,93807.7
2019-01-23T14:51:39.846Z,93787.3
2019-01-23T14:56:37.404Z,93788.2
2019-01-23T15:01:34.431Z,93786.7
2019-01-23T15:06:31.773Z,93774.6
2019-01-23T15:11:33.823Z,93892.2
2019-01-23T15:16:35.323Z,93776.1
2019-01-23T15:21:37.331Z,94040.6
2019-01-23T15:26:38.389Z,93780.1
2019-01-23T15:31:39.453Z,93760.2
2019-01-23T15:36:36.096Z,93753.4
2019-01-23T15:41:33.529Z,93756.6
2019-01-23T15:46:30.950Z,93757.3
2019-01-23T15:51:28.543Z,93701.5
2019-01-23T15:56:26.125Z,93756
2019-01-23T16:01:23.573Z,93973.5
2019-01-23T16:06:20.671Z,93749.1
2019-01-23T16:11:18.390Z,93744.7
2019-01-23T16:16:15.770Z,93738.2
2019-01-23T16:21:13.301Z,93858.9
2019-01-23T16:26:10.548Z,93901.1
2019-01-23T16:31:08.192Z,93737.7
2019-01-23T16:36:05.510Z,93946.1
2019-01-23T16:41:02.983Z,93735.8
2019-01-23T16:46:00.458Z,93744.3
2019-01-23T16:50:57.740Z,93853.1
2019-01-23T16:55:55.930Z,93727.2
2019-01-23T17:00:53.629Z,93728.9
2019-01-23T17:05:50.874Z,93758.2
2019-01-23T17:10:48.616Z,93699.5
2019-01-23T17:15:46.046Z,93964.6
2019-01-23T17:20:43.460Z,93688.2
2019-01-23T17:25:40.785Z,93944.3
2019-01-23T17:30:38.350Z,93793.5
2019-01-23T17:35:35.787Z,93934.4
2019-01-23T17:40:33.291Z,93785.9
2019-01-23T17:45:30.793Z,93954
2019-01-23T17:50:28.369Z,93944.2
2019-01-23T17:55:26.257Z,93682.6
2019-01-23T18:00:24.078Z,93914.9
2019-01-23T18:05:21.172Z,93806.5
2019-01-23T18:10:18.346Z,93896.9
2019-01-23T18:15:15.934Z,93833
2019-01-23T18:20:13.181Z,93945.1
2019-01-23T18:25:10.820Z,93880.7
2019-01-23T18:30:08.335Z,93882
2019-01-23T18:35:05.724Z,93446.3
2019-01-23T18:40:03.064Z,93868
2019-01-23T18:45:00.423Z,93617.9
2019-01-23T18:49:57.800Z,93896.1
2019-01-23T18:54:55.371Z,93837.6
2019-01-23T18:59:59.097Z,93808.2
2019-01-23T19:04:50.560Z,93820.3
2019-01-23T19:09:48.122Z,93843.5
2019-01-23T19:14:45.722Z,93834.4
2019-01-23T19:19:43.339Z,93794.1
2019-01-23T19:24:40.820Z,93813.3
2019-01-23T19:29:38.225Z,93801
2019-01-23T19:34:35.917Z,93836.9
2019-01-23T19:39:33.519Z,93835.7
2019-01-23T19:44:31.161Z,93564.2
2019-01-23T19:49:29.108Z,93847.9
2019-01-23T19:54:26.253Z,93627.5
2019-01-23T19:59:23.947Z,93550.9
2019-01-23T20:04:21.383Z,93350.2
2019-01-23T20:09:18.785Z,93537.3
2019-01-23T20:14:16.251Z,93547
2019-01-23T20:19:13.698Z,93498.8
2019-01-23T20:24:11.261Z,93476.5
2019-01-23T20:29:08.812Z,93488.7
2019-01-23T20:34:06.350Z,93768.8
2019-01-23T20:39:03.978Z,93518.6
2019-01-23T20:44:01.386Z,93544.7
2019-01-23T20:48:58.941Z,93738.7
2019-01-23T20:53:56.345Z,93575.9
2019-01-23T20:58:54.023Z,93544.2
2019-01-23T21:03:51.647Z,93663.2
2019-01-23T21:08:49.392Z,93588.6
2019-01-23T21:13:47.210Z,93667.2
2019-01-23T21:18:44.690Z,93615.1
2019-01-23T21:23:42.389Z,93598.1
2019-01-23T21:28:39.864Z,93635.1
2019-01-23T21:33:42.016Z,93496.5
2019-01-23T21:38:35.112Z,93433.3
2019-01-23T21:43:32.649Z,93430
2019-01-23T21:48:29.970Z,93419.3
2019-01-23T21:53:27.562Z,93641.8
2019-01-23T21:58:24.504Z,93438
2019-01-23T22:03:22.110Z,93415.1
2019-01-23T22:08:19.775Z,93424.6
2019-01-23T22:18:15.087Z,93707.4
2019-01-23T22:23:12.609Z,93622.9
2019-01-23T22:28:10.429Z,93435.9
2019-01-23T22:33:07.762Z,93420.4
2019-01-23T22:38:05.484Z,93409.1
2019-01-23T22:43:02.971Z,93406.6
2019-01-23T22:48:00.013Z,93403.8
2019-01-23T22:52:57.357Z,93395.1
2019-01-23T22:57:55.000Z,93489
2019-01-23T23:02:53.217Z,93509.1
2019-01-23T23:07:50.465Z,93396
2019-01-23T23:12:47.496Z,93402.3
2019-01-23T23:17:44.831Z,93496.7
2019-01-23T23:22:42.418Z,93363.9
2019-01-23T23:27:39.840Z,93374.9
2019-01-23T23:32:37.350Z,93480.9
2019-01-23T23:37:35.162Z,93469.1
2019-01-23T23:42:32.575Z,93324.2
2019-01-23T23:47:30.177Z,93326.5
2019-01-23T23:52:27.622Z,93302
2019-01-23T23:57:25.098Z,93293.8
